• Join FlightAware (Why Join?)
  • Login
  • US Flag 
10:25AM EDT


 

Airport Tracker/Info


-or-


 

Live Flight TrackerFlight Track Log ✈ SWA1903 ✈ 21-May-2013 ✈ KBWI - KDTW

Flight Track Log - Related Links

Times and Time Zones

All times are in EDT time to prevent confusion due to time zone crossing. See the SWA1903 flight status page for this flight to view local times or setup timezone preferences in your user account.

Time Position Orientation Groundspeed Altitude Reporting Facility
EDT Latitude Longitude Course Direction KTS MPH feet Rate Location/Type
07:54AM 39.1833 -76.7500 322° Northwest 204 235 2,800  Level Potomac TRACON
07:55AM 39.2000 -76.8333 284° West 230 265 6,200 2,820 Climbing Potomac TRACON
07:56AM 39.2167 -76.9333 282° West 274 315 8,800 2,400 Climbing Potomac TRACON
07:57AM 39.2503 -77.0792 287° West 303 349 12,400 2,700 Climbing Washington Center
07:58AM 39.2967 -77.1928 298° West 322 371 15,700 3,060 Climbing Washington Center
07:59AM 39.3602 -77.2935 322° Northwest  Level FlightAware Approximate
07:59AM 39.3450 -77.3117 298° West 357 411 18,500  Level Washington Center
08:00AM 39.3953 -77.4367 298° West 378 435 21,100 2,640 Climbing Washington Center
08:01AM 39.4514 -77.5803 297° West 405 466 23,900 2,400 Climbing Washington Center
08:02AM 39.4947 -77.7242 291° West 417 480 26,000 2,040 Climbing Washington Center
08:04AM 39.5903 -78.0267 292° West 452 520 30,200 1,980 Climbing Cleveland Center
08:05AM 39.6331 -78.1706 291° West 447 514 32,100 1,860 Climbing Cleveland Center
08:06AM 39.6756 -78.3175 291° West 447 514 34,000 900 Climbing Cleveland Center
08:07AM 39.7203 -78.4644 292° West 442 509 34,000  Level Cleveland Center
08:08AM 39.7728 -78.6058 296° West 442 509 34,000  Level Cleveland Center
08:09AM 39.8228 -78.7261 298° West 436 502 34,000  Level Cleveland Center
08:10AM 39.8853 -78.8569 302° West 426 490 34,000  Level Cleveland Center
08:11AM 39.9497 -78.9881 303° West 426 490 34,000  Level Cleveland Center
08:12AM 40.0119 -79.1194 302° West 431 496 34,000  Level Cleveland Center
08:13AM 40.0678 -79.2511 299° West 425 489 34,000  Level Cleveland Center
08:14AM 40.1317 -79.3800 303° West 425 489 34,000  Level Cleveland Center
08:15AM 40.1914 -79.5069 302° West 420 483 34,000  Level Cleveland Center
08:16AM 40.2486 -79.6311 301° West 420 483 34,000  Level Cleveland Center
08:17AM 40.3061 -79.7583 301° West 420 483 34,000  Level Cleveland Center
08:18AM 40.3631 -79.8856 300° West 415 478 34,000  Level Cleveland Center
08:19AM 40.4181 -80.0131 300° West 405 466 34,000  Level Cleveland Center
08:20AM 40.4728 -80.1383 300° West 410 472 34,000 -1,140 Level Cleveland Center
08:21AM 40.5294 -80.2636 301° West 405 466 31,800 -2,100 Descending Cleveland Center
08:22AM 40.5964 -80.4028 302° West 405 466 29,800 -1,500 Descending Cleveland Center
08:23AM 40.6467 -80.5228 299° West 405 466 28,800 -900 Descending Cleveland Center
08:24AM 40.7050 -80.6544 300° West 410 472 28,000 -420 Descending Cleveland Center
08:25AM 40.7717 -80.7942 302° West 410 472 28,000  Level Cleveland Center
08:26AM 40.8256 -80.9206 299° West 404 465 28,000  Level Cleveland Center
08:27AM 40.8833 -81.0500 301° West 404 465 28,000  Level Cleveland Center
08:28AM 40.9369 -81.1822 298° West 404 465 28,000  Level Cleveland Center
08:29AM 40.9944 -81.3150 300° West 409 471 28,000  Level Cleveland Center
08:30AM 41.0519 -81.4478 300° West 414 476 28,000  Level Cleveland Center
08:31AM 41.1072 -81.5753 300° West 414 476 28,000  Level Cleveland Center
08:32AM 41.1644 -81.7056 300° West 414 476 28,000 -480 Level Cleveland Center
08:33AM 41.2214 -81.8364 300° West 409 471 27,100 -960 Descending Cleveland Center
08:34AM 41.2761 -81.9617 300° West 404 465 26,100 -960 Descending Cleveland Center
08:35AM 41.3328 -82.0958 299° West 404 465 25,200 -1,140 Descending Cleveland Center
08:36AM 41.3936 -82.2244 302° West 409 471 23,900 -1,860 Descending Cleveland Center
08:37AM 41.4650 -82.3428 309° West 409 471 21,500 -2,400 Descending Cleveland Center
08:38AM 41.5319 -82.4556 308° West 402 463 19,100 -2,520 Descending Cleveland Center
08:39AM 41.5664 -82.5147 308° West 390 449 17,700 -2,400 Descending Cleveland Center
08:39AM 41.5967 -82.5656 309° West 397 457 16,700 -2,400 Descending Cleveland Center
08:40AM 41.6331 -82.6278 308° West 376 433 15,300 -2,100 Descending Cleveland Center
08:40AM 41.6556 -82.6647 309° West 392 451 14,600 -2,280 Descending Cleveland Center
08:41AM 41.7000 -82.7331 311° West 370 426 13,000 -2,400 Descending Cleveland Center
08:41AM 41.7203 -82.7725 305° West 381 438 12,200 -1,020 Descending Cleveland Center
08:42AM 41.7711 -82.8383 316° Northwest 362 417 12,000 -240 Descending Cleveland Center
08:42AM 41.7914 -82.8642 316° Northwest 365 420 12,000  Level Cleveland Center
08:43AM 41.8464 -82.9247 321° Northwest 356 410 12,000  Level Cleveland Center
08:43AM 41.8647 -82.9503 314° West 360 414 12,000  Level Cleveland Center
08:44AM 41.9197 -83.0139 319° Northwest 348 400 12,000  Level Cleveland Center
08:44AM 41.9358 -83.0339 317° Northwest 349 402 12,000 -420 Level Cleveland Center
08:45AM 41.9886 -83.0975 318° Northwest 337 388 11,600 -600 Descending Cleveland Center
08:45AM 42.0050 -83.1178 317° Northwest 336 387 11,400 -600 Descending Cleveland Center
08:46AM 42.0597 -83.1842 318° Northwest 354 407 11,000 -420 Descending Cleveland Center
08:46AM 42.0800 -83.2047 323° Northwest 336 387 11,000 -120 Level Cleveland Center
08:47AM 42.1528 -83.2217 350° North 321 369 10,900 -240 Descending Cleveland Center
08:47AM 42.1672 -83.2222 358° North 314 361 10,800 -540 Descending Cleveland Center
08:48AM 42.2264 -83.1911 21° North 300 345 10,400 -600 Descending Cleveland Center
08:48AM 42.2475 -83.1750 29° Northeast 295 339 10,200 -1,140 Descending Cleveland Center
08:49AM 42.3006 -83.1350 29° Northeast 286 329 9,300 -1,380 Descending Cleveland Center
08:50AM 42.3664 -83.0844 30° Northeast 277 319 8,000 -1,080 Descending Cleveland Center
08:51AM 42.4319 -83.0364 28° Northeast 250 288 7,200 -840 Descending Cleveland Center
08:52AM 42.4928 -83.0189 12° North 189 217 6,300 -600 Descending Cleveland Center
08:53AM 42.5019 -83.0814 281° West 166 191 6,000 -180 Descending Cleveland Center
08:54AM 42.4883 -83.1314 250° West 157 181 6,000 -300 Level Cleveland Center
08:55AM 42.4478 -83.1692 215° Southwest 172 198 5,500 -660 Descending Cleveland Center
08:56AM 42.4011 -83.2011 207° Southwest 168 193 4,600 -840 Descending Cleveland Center